createdAt,value
2018-03-23T00:02:02.913Z,8.90
2018-03-23T00:04:30.516Z,8.90
2018-03-23T00:06:58.131Z,8.90
2018-03-23T00:09:25.725Z,8.90
2018-03-23T00:11:53.306Z,8.90
2018-03-23T00:14:20.932Z,8.90
2018-03-23T00:16:48.527Z,8.90
2018-03-23T00:19:16.136Z,8.90
2018-03-23T00:21:43.736Z,8.90
2018-03-23T00:24:11.353Z,8.90
2018-03-23T00:26:38.936Z,8.90
2018-03-23T00:29:06.608Z,8.90
2018-03-23T00:31:34.223Z,8.90
2018-03-23T00:34:02.577Z,8.90
2018-03-23T00:36:31.702Z,8.80
2018-03-23T00:39:00.052Z,8.90
2018-03-23T00:41:29.160Z,8.80
2018-03-23T00:43:56.781Z,8.80
2018-03-23T00:46:24.366Z,8.90
2018-03-23T00:48:51.980Z,8.90
2018-03-23T00:51:19.569Z,8.80
2018-03-23T00:53:47.198Z,8.80
2018-03-23T00:56:14.788Z,8.80
2018-03-23T00:58:42.376Z,8.80
2018-03-23T01:01:11.500Z,8.70
2018-03-23T01:03:39.097Z,8.70
2018-03-23T01:06:06.715Z,8.70
2018-03-23T01:08:35.076Z,8.70
2018-03-23T01:11:02.661Z,8.70
2018-03-23T01:13:30.269Z,8.70
2018-03-23T01:15:57.850Z,8.70
2018-03-23T01:18:26.236Z,8.60
2018-03-23T01:20:53.819Z,8.60
2018-03-23T01:23:21.405Z,8.60
2018-03-23T01:25:49.017Z,8.70
2018-03-23T01:28:16.603Z,8.70
2018-03-23T01:30:44.250Z,8.70
2018-03-23T01:33:12.620Z,8.70
2018-03-23T01:35:40.200Z,8.70
2018-03-23T01:38:08.586Z,8.70
2018-03-23T01:40:36.176Z,8.60
2018-03-23T01:43:03.792Z,8.70
2018-03-23T01:45:32.147Z,8.70
2018-03-23T01:48:00.530Z,8.70
2018-03-23T01:50:28.119Z,8.70
2018-03-23T01:52:55.746Z,8.70
2018-03-23T01:55:23.338Z,8.70
2018-03-23T01:57:51.729Z,8.70
2018-03-23T02:00:19.317Z,8.60
2018-03-23T02:02:46.931Z,8.70
2018-03-23T02:05:15.302Z,8.70
2018-03-23T02:07:43.682Z,8.70
2018-03-23T02:10:12.037Z,8.70
2018-03-23T02:12:39.652Z,8.60
2018-03-23T02:15:07.236Z,8.70
2018-03-23T02:17:34.846Z,8.70
2018-03-23T02:20:03.192Z,8.60
2018-03-23T02:22:30.803Z,8.60
2018-03-23T02:24:58.389Z,8.60
2018-03-23T02:27:26.012Z,8.60
2018-03-23T02:29:53.632Z,8.60
2018-03-23T02:32:21.248Z,8.60
2018-03-23T02:34:48.850Z,8.60
2018-03-23T02:37:16.470Z,8.50
2018-03-23T02:39:44.073Z,8.50
2018-03-23T02:42:11.685Z,8.50
2018-03-23T02:44:39.271Z,8.50
2018-03-23T02:47:06.897Z,8.50
2018-03-23T02:49:35.252Z,8.40
2018-03-23T02:52:02.872Z,8.30
2018-03-23T02:54:30.472Z,8.40
2018-03-23T02:56:58.820Z,8.40
2018-03-23T02:59:26.430Z,8.30
2018-03-23T03:01:54.798Z,8.40
2018-03-23T03:04:22.412Z,8.30
2018-03-23T03:06:50.000Z,8.40
2018-03-23T03:09:17.633Z,8.40
2018-03-23T03:11:45.233Z,8.40
2018-03-23T03:14:12.843Z,8.40
2018-03-23T03:16:40.437Z,8.40
2018-03-23T03:19:08.060Z,8.40
2018-03-23T03:21:35.645Z,8.40
2018-03-23T03:24:03.276Z,8.40
2018-03-23T03:26:30.866Z,8.40
2018-03-23T03:28:58.479Z,8.40
2018-03-23T03:31:26.838Z,8.40
2018-03-23T03:33:54.452Z,8.30
2018-03-23T03:36:22.044Z,8.40
2018-03-23T03:38:49.651Z,8.40
2018-03-23T03:41:17.265Z,8.40
2018-03-23T03:43:44.849Z,8.40
2018-03-23T03:46:13.234Z,8.40
2018-03-23T03:48:41.592Z,8.40
2018-03-23T03:51:09.200Z,8.30
2018-03-23T03:53:36.788Z,8.40
2018-03-23T03:56:04.419Z,8.40
2018-03-23T03:58:32.004Z,8.40
2018-03-23T04:00:59.609Z,8.40
2018-03-23T04:03:27.990Z,8.40
2018-03-23T04:05:56.340Z,8.50
2018-03-23T04:08:23.952Z,8.40
2018-03-23T04:10:51.547Z,8.40
2018-03-23T04:13:19.201Z,8.40
2018-03-23T04:15:46.780Z,8.40
2018-03-23T04:18:14.389Z,8.40
2018-03-23T04:20:41.984Z,8.40
2018-03-23T04:23:09.595Z,8.40
2018-03-23T04:25:37.951Z,8.40
2018-03-23T04:28:05.580Z,8.40
2018-03-23T04:30:33.172Z,8.40
2018-03-23T04:33:01.550Z,8.40
2018-03-23T04:35:30.633Z,8.40
2018-03-23T04:37:58.252Z,8.30
2018-03-23T04:40:25.842Z,8.40
2018-03-23T04:42:53.457Z,8.40
2018-03-23T04:45:21.807Z,8.40
2018-03-23T04:47:49.426Z,8.40
2018-03-23T04:50:17.012Z,8.40
2018-03-23T04:52:44.620Z,8.40
2018-03-23T04:55:12.970Z,8.40
2018-03-23T04:57:40.584Z,8.40
2018-03-23T05:00:08.164Z,8.40
2018-03-23T05:02:35.781Z,8.40
2018-03-23T05:05:04.140Z,8.40
2018-03-23T05:07:31.765Z,8.40
2018-03-23T05:09:59.360Z,8.40
2018-03-23T05:12:26.943Z,8.40
2018-03-23T05:14:54.551Z,8.40
2018-03-23T05:17:22.136Z,8.40
2018-03-23T05:19:49.753Z,8.40
2018-03-23T05:22:17.340Z,8.40
2018-03-23T05:24:45.004Z,8.50
2018-03-23T05:27:12.569Z,8.40
2018-03-23T05:29:40.185Z,8.50
2018-03-23T05:32:07.768Z,8.40
2018-03-23T05:34:35.385Z,8.40
2018-03-23T05:37:03.739Z,8.50
2018-03-23T05:39:31.408Z,8.40
2018-03-23T05:41:59.806Z,8.50
2018-03-23T05:44:27.393Z,8.40
2018-03-23T05:46:55.008Z,8.40
2018-03-23T05:49:23.369Z,8.50
2018-03-23T05:51:50.996Z,8.40
2018-03-23T05:54:18.592Z,8.40
2018-03-23T05:56:46.213Z,8.40
2018-03-23T05:59:13.797Z,8.40
2018-03-23T06:01:41.384Z,8.40
2018-03-23T06:04:09.124Z,8.40
2018-03-23T06:06:36.718Z,8.40
2018-03-23T06:09:05.121Z,8.40
2018-03-23T06:11:32.700Z,8.40
2018-03-23T06:14:00.318Z,8.40
2018-03-23T06:16:28.667Z,8.40
2018-03-23T06:18:56.274Z,8.40
2018-03-23T06:21:23.872Z,8.40
2018-03-23T06:23:51.496Z,8.40
2018-03-23T06:26:19.089Z,8.40
2018-03-23T06:28:46.702Z,8.50
2018-03-23T06:31:15.056Z,8.50
2018-03-23T06:33:42.672Z,8.40
2018-03-23T06:36:10.253Z,8.50
2018-03-23T06:38:37.860Z,8.50
2018-03-23T06:41:06.220Z,8.50
2018-03-23T06:43:33.842Z,8.50
2018-03-23T06:46:01.431Z,8.50
2018-03-23T06:48:29.056Z,8.60
2018-03-23T06:50:56.638Z,8.50
2018-03-23T06:53:24.251Z,8.60
2018-03-23T06:55:51.839Z,8.60
2018-03-23T06:58:19.470Z,8.60
2018-03-23T07:00:47.823Z,8.60
2018-03-23T07:03:15.440Z,8.60
2018-03-23T07:05:43.028Z,8.70
2018-03-23T07:08:10.663Z,8.70
2018-03-23T07:10:38.247Z,8.70
2018-03-23T07:13:05.876Z,8.70
2018-03-23T07:15:33.470Z,8.80
2018-03-23T07:18:01.087Z,8.80
2018-03-23T07:20:28.722Z,8.80
2018-03-23T07:22:57.158Z,8.90
2018-03-23T07:25:24.744Z,8.80
2018-03-23T07:27:52.366Z,8.90
2018-03-23T07:30:19.959Z,9.00
2018-03-23T07:32:47.828Z,9.00
2018-03-23T07:35:15.583Z,9.00
2018-03-23T07:37:43.457Z,9.10
2018-03-23T07:40:11.050Z,9.10
2018-03-23T07:42:39.429Z,9.20
2018-03-23T07:45:07.030Z,9.10
2018-03-23T07:47:34.653Z,9.20
2018-03-23T07:50:03.073Z,9.30
2018-03-23T07:52:30.683Z,9.30
2018-03-23T07:54:59.034Z,9.40
2018-03-23T07:57:26.643Z,9.30
2018-03-23T07:59:54.228Z,9.50
2018-03-23T08:02:21.851Z,9.50
2018-03-23T08:04:50.303Z,9.60
2018-03-23T08:07:17.898Z,9.60
2018-03-23T08:09:46.276Z,9.70
2018-03-23T08:12:14.752Z,9.70
2018-03-23T08:14:43.395Z,9.80
2018-03-23T08:17:10.980Z,9.70
2018-03-23T08:19:39.359Z,9.90
2018-03-23T08:22:06.948Z,9.90
2018-03-23T08:24:34.564Z,10.00
2018-03-23T08:27:02.156Z,10.00
2018-03-23T08:29:31.749Z,10.00
2018-03-23T08:32:00.108Z,10.10
2018-03-23T08:34:28.496Z,10.10
2018-03-23T08:36:56.080Z,10.10
2018-03-23T08:39:24.456Z,10.20
2018-03-23T08:41:52.813Z,10.30
2018-03-23T08:44:20.470Z,10.20
2018-03-23T08:46:48.049Z,10.30
2018-03-23T08:49:16.432Z,10.40
2018-03-23T08:51:44.796Z,10.40
2018-03-23T08:54:13.941Z,10.40
2018-03-23T08:56:41.524Z,10.40
2018-03-23T08:59:09.135Z,10.40
2018-03-23T09:01:37.494Z,10.50
2018-03-23T09:04:05.120Z,10.40
2018-03-23T09:06:32.740Z,10.50
2018-03-23T09:09:01.094Z,10.50
2018-03-23T09:11:28.716Z,10.40
2018-03-23T09:13:56.501Z,10.50
2018-03-23T09:16:24.115Z,10.50
2018-03-23T09:18:51.807Z,10.50
2018-03-23T09:21:19.428Z,10.50
2018-03-23T09:23:47.783Z,10.60
2018-03-23T09:26:15.406Z,10.50
2018-03-23T09:28:43.004Z,10.60
2018-03-23T09:31:10.651Z,10.60
2018-03-23T09:33:39.049Z,10.70
2018-03-23T09:36:06.686Z,10.70
2018-03-23T09:38:34.591Z,10.80
2018-03-23T09:41:02.241Z,10.80
2018-03-23T09:43:30.619Z,10.80
2018-03-23T09:45:59.021Z,10.90
2018-03-23T09:48:26.610Z,10.80
2018-03-23T09:50:54.235Z,10.90
2018-03-23T09:53:22.597Z,10.90
2018-03-23T09:55:51.001Z,10.90
2018-03-23T09:58:22.560Z,10.90
2018-03-23T10:00:50.192Z,10.90
2018-03-23T10:03:18.544Z,11.00
2018-03-23T10:05:46.160Z,11.00
2018-03-23T10:08:13.750Z,11.10
2018-03-23T10:10:41.332Z,11.10
2018-03-23T10:13:09.081Z,11.10
2018-03-23T10:15:36.844Z,11.20
2018-03-23T10:18:06.656Z,11.20
2018-03-23T10:20:34.316Z,11.20
2018-03-23T10:23:01.936Z,11.30
2018-03-23T10:25:29.529Z,11.30
2018-03-23T10:27:57.147Z,11.30
2018-03-23T10:32:57.293Z,11.30
2018-03-23T10:35:25.667Z,11.40
2018-03-23T10:37:53.312Z,11.40
2018-03-23T10:40:22.136Z,11.40
2018-03-23T10:42:49.820Z,11.50
2018-03-23T10:45:17.426Z,11.50
2018-03-23T10:47:45.821Z,11.70
2018-03-23T10:52:45.261Z,11.80
2018-03-23T10:55:12.973Z,11.80
2018-03-23T10:57:40.545Z,11.90
2018-03-23T11:00:09.982Z,12.00
2018-03-23T11:02:40.746Z,12.00
2018-03-23T11:05:09.511Z,12.20
2018-03-23T11:07:37.101Z,12.10
2018-03-23T11:10:04.708Z,12.20
2018-03-23T11:12:33.438Z,12.30
2018-03-23T11:15:01.835Z,12.40
2018-03-23T11:17:29.453Z,12.40
2018-03-23T11:19:57.041Z,12.50
2018-03-23T11:22:24.652Z,12.50
2018-03-23T11:24:53.019Z,12.70
2018-03-23T11:27:21.430Z,12.70
2018-03-23T11:29:49.123Z,12.70
2018-03-23T11:32:16.713Z,12.80
2018-03-23T11:34:44.342Z,12.90
2018-03-23T11:37:11.946Z,12.90
2018-03-23T11:39:43.493Z,13.20
2018-03-23T11:42:11.133Z,13.10
2018-03-23T11:44:38.726Z,13.20
2018-03-23T11:47:07.109Z,13.30
2018-03-23T11:49:35.473Z,13.40
2018-03-23T11:52:03.125Z,13.30
2018-03-23T11:54:32.683Z,13.40
2018-03-23T11:57:00.440Z,13.40
2018-03-23T11:59:28.028Z,13.40
2018-03-23T12:01:55.650Z,13.40
2018-03-23T12:04:23.248Z,13.50
2018-03-23T12:06:50.867Z,13.50
2018-03-23T12:09:19.231Z,13.50
2018-03-23T12:11:48.180Z,13.50
2018-03-23T12:14:16.917Z,13.60
2018-03-23T12:16:45.448Z,13.60
2018-03-23T12:19:13.213Z,13.50
2018-03-23T12:21:41.096Z,13.60
2018-03-23T12:24:08.969Z,13.60
2018-03-23T12:26:36.833Z,13.60
2018-03-23T12:29:04.664Z,13.60
2018-03-23T12:31:32.382Z,13.60
2018-03-23T12:34:00.960Z,13.70
2018-03-23T12:36:29.508Z,13.70
2018-03-23T12:38:57.374Z,13.60
2018-03-23T12:41:25.142Z,13.70
2018-03-23T12:43:52.771Z,13.70
2018-03-23T12:46:20.360Z,13.70
2018-03-23T12:48:47.987Z,13.70
2018-03-23T12:51:15.585Z,13.70
2018-03-23T12:53:43.197Z,13.70
2018-03-23T12:56:11.567Z,13.80
2018-03-23T12:58:39.953Z,13.80
2018-03-23T13:01:08.308Z,13.90
2018-03-23T13:03:35.921Z,13.80
2018-03-23T13:06:03.525Z,13.90
2018-03-23T13:08:31.933Z,14.00
2018-03-23T13:11:00.290Z,14.00
2018-03-23T13:13:28.681Z,14.00
2018-03-23T13:15:57.042Z,14.00
2018-03-23T13:18:24.660Z,14.00
2018-03-23T13:20:52.257Z,14.10
2018-03-23T13:23:19.894Z,14.10
2018-03-23T13:25:47.485Z,14.20
2018-03-23T13:28:15.102Z,14.20
2018-03-23T13:30:42.697Z,14.20
2018-03-23T13:33:10.308Z,14.20
2018-03-23T13:35:37.898Z,14.30
2018-03-23T13:38:05.529Z,14.30
2018-03-23T13:40:33.128Z,14.30
2018-03-23T13:43:00.750Z,14.30
2018-03-23T13:45:28.352Z,14.30
2018-03-23T13:47:55.944Z,14.30
2018-03-23T13:50:23.589Z,14.30
2018-03-23T13:52:52.003Z,14.30
2018-03-23T13:55:20.355Z,14.30
2018-03-23T13:57:47.982Z,14.20
2018-03-23T14:00:21.184Z,14.30
2018-03-23T14:02:48.813Z,14.30
2018-03-23T14:05:16.447Z,14.30
2018-03-23T14:07:44.843Z,14.40
2018-03-23T14:10:12.481Z,14.30
2018-03-23T14:12:40.117Z,14.40
2018-03-23T14:15:07.718Z,14.50
2018-03-23T14:17:35.336Z,14.50
2018-03-23T14:20:02.928Z,14.50
2018-03-23T14:22:31.317Z,14.50
2018-03-23T14:24:59.668Z,14.50
2018-03-23T14:27:28.074Z,14.60
2018-03-23T14:29:56.475Z,14.60
2018-03-23T14:32:24.096Z,14.50
2018-03-23T14:34:52.379Z,14.60
2018-03-23T14:37:19.974Z,14.60
2018-03-23T14:39:47.588Z,14.60
2018-03-23T14:42:15.948Z,14.60
2018-03-23T14:44:43.556Z,14.50
2018-03-23T14:47:11.913Z,14.60
2018-03-23T14:49:39.560Z,14.60
2018-03-23T14:52:07.151Z,14.60
2018-03-23T14:54:35.533Z,14.60
2018-03-23T14:57:04.165Z,14.60
2018-03-23T14:59:34.967Z,14.50
2018-03-23T15:02:02.772Z,14.60
2018-03-23T15:04:30.541Z,14.60
2018-03-23T15:06:58.303Z,14.60
2018-03-23T15:09:26.075Z,14.60
2018-03-23T15:11:53.944Z,14.60
2018-03-23T15:14:21.802Z,14.60
2018-03-23T15:16:49.668Z,14.60
2018-03-23T15:19:17.534Z,14.60
2018-03-23T15:21:45.447Z,14.60
2018-03-23T15:24:14.085Z,14.50
2018-03-23T15:26:41.943Z,14.40
2018-03-23T15:29:09.829Z,14.50
2018-03-23T15:31:37.796Z,14.40
2018-03-23T15:34:05.467Z,14.40
2018-03-23T15:36:33.328Z,14.40
2018-03-23T15:39:01.183Z,14.40
2018-03-23T15:41:29.059Z,14.40
2018-03-23T15:43:57.025Z,14.30
2018-03-23T15:46:24.789Z,14.30
2018-03-23T15:48:52.651Z,14.30
2018-03-23T15:51:20.520Z,14.20
2018-03-23T15:53:48.393Z,14.20
2018-03-23T15:56:16.490Z,14.20
2018-03-23T15:58:45.150Z,14.10
2018-03-23T16:01:13.019Z,14.10
2018-03-23T16:03:40.877Z,14.10
2018-03-23T16:06:08.639Z,14.10
2018-03-23T16:08:36.506Z,14.10
2018-03-23T16:11:04.383Z,14.10
2018-03-23T16:13:32.253Z,14.10
2018-03-23T16:16:00.831Z,14.00
2018-03-23T16:18:28.828Z,14.00
2018-03-23T16:20:56.587Z,14.00
2018-03-23T16:23:25.139Z,14.00
2018-03-23T16:25:53.021Z,13.90
2018-03-23T16:28:20.871Z,14.00
2018-03-23T16:30:48.758Z,13.90
2018-03-23T16:33:16.616Z,13.90
2018-03-23T16:35:44.477Z,13.90
2018-03-23T16:38:12.345Z,13.90
2018-03-23T16:40:40.216Z,13.80
2018-03-23T16:43:07.955Z,13.80
2018-03-23T16:45:35.839Z,13.80
2018-03-23T16:48:03.719Z,13.80
2018-03-23T16:50:31.580Z,13.80
2018-03-23T16:52:59.460Z,13.80
2018-03-23T16:55:27.156Z,13.70
2018-03-23T16:57:54.980Z,13.70
2018-03-23T17:00:22.843Z,13.70
2018-03-23T17:02:50.699Z,13.70
2018-03-23T17:05:18.483Z,13.70
2018-03-23T17:07:46.258Z,13.60
2018-03-23T17:10:13.854Z,13.60
2018-03-23T17:12:41.780Z,13.60
2018-03-23T17:15:09.385Z,13.60
2018-03-23T17:17:37.001Z,13.60
2018-03-23T17:20:04.597Z,13.60
2018-03-23T17:22:32.244Z,13.60
2018-03-23T17:25:00.601Z,13.60
2018-03-23T17:27:28.992Z,13.50
2018-03-23T17:29:57.353Z,13.50
2018-03-23T17:32:24.978Z,13.50
2018-03-23T17:34:52.679Z,13.50
2018-03-23T17:37:21.777Z,13.40
2018-03-23T17:39:49.393Z,13.40
2018-03-23T17:42:17.070Z,13.40
2018-03-23T17:44:44.688Z,13.40
2018-03-23T17:47:13.052Z,13.30
2018-03-23T17:49:41.432Z,13.30
2018-03-23T17:52:09.801Z,13.20
2018-03-23T17:54:37.402Z,13.20
2018-03-23T17:57:05.029Z,13.20
2018-03-23T17:59:33.388Z,13.10
2018-03-23T18:02:01.040Z,13.00
2018-03-23T18:04:28.636Z,13.10
2018-03-23T18:06:57.026Z,13.00
2018-03-23T18:09:24.630Z,13.00
2018-03-23T18:11:52.336Z,13.00
2018-03-23T18:14:19.925Z,13.00
2018-03-23T18:16:47.722Z,13.00
2018-03-23T18:19:15.316Z,13.00
2018-03-23T18:21:42.936Z,13.00
2018-03-23T18:24:10.594Z,12.90
2018-03-23T18:26:38.184Z,12.90
2018-03-23T18:29:05.801Z,12.90
2018-03-23T18:31:33.400Z,12.90
2018-03-23T18:34:01.021Z,12.90
2018-03-23T18:36:28.629Z,12.90
2018-03-23T18:38:56.266Z,12.80
2018-03-23T18:41:23.864Z,12.80
2018-03-23T18:43:51.457Z,12.80
2018-03-23T18:46:19.071Z,12.80
2018-03-23T18:48:46.672Z,12.70
2018-03-23T18:51:14.288Z,12.70
2018-03-23T18:53:41.880Z,12.70
2018-03-23T18:56:10.278Z,12.60
2018-03-23T18:58:37.907Z,12.60
2018-03-23T19:01:06.317Z,12.60
2018-03-23T19:03:33.932Z,12.50
2018-03-23T19:06:01.553Z,12.60
2018-03-23T19:08:29.140Z,12.60
2018-03-23T19:10:56.761Z,12.60
2018-03-23T19:13:24.348Z,12.60
2018-03-23T19:15:51.974Z,12.50
2018-03-23T19:18:20.336Z,12.50
2018-03-23T19:20:48.728Z,12.50
2018-03-23T19:23:16.325Z,12.40
2018-03-23T19:25:43.960Z,12.50
2018-03-23T19:28:11.551Z,12.40
2018-03-23T19:30:39.165Z,12.40
2018-03-23T19:33:07.522Z,12.40
2018-03-23T19:35:35.154Z,12.30
2018-03-23T19:38:02.756Z,12.40
2018-03-23T19:40:31.138Z,12.30
2018-03-23T19:42:59.534Z,12.30
2018-03-23T19:45:27.130Z,12.30
2018-03-23T19:47:54.749Z,12.30
2018-03-23T19:50:23.103Z,12.30
2018-03-23T19:52:53.160Z,12.30
2018-03-23T19:55:21.699Z,12.30
2018-03-23T19:57:49.322Z,12.20
2018-03-23T20:00:16.913Z,12.30
2018-03-23T20:02:44.532Z,12.30
2018-03-23T20:05:12.122Z,12.20
2018-03-23T20:07:39.745Z,12.20
2018-03-23T20:10:07.366Z,12.20
2018-03-23T20:12:35.200Z,12.20
2018-03-23T20:15:02.800Z,12.20
2018-03-23T20:17:36.112Z,12.10
2018-03-23T20:23:04.629Z,12.20
2018-03-23T20:25:32.247Z,12.10
2018-03-23T20:28:05.595Z,12.10
2018-03-23T20:30:33.192Z,12.10
2018-03-23T20:33:00.821Z,12.10
2018-03-23T20:35:28.412Z,12.10
2018-03-23T20:37:56.346Z,12.10
2018-03-23T20:40:23.942Z,12.00
2018-03-23T20:42:51.529Z,12.00
2018-03-23T20:45:19.921Z,12.00
2018-03-23T20:47:48.288Z,12.00
2018-03-23T20:50:16.681Z,12.00
2018-03-23T20:52:45.043Z,12.00
2018-03-23T20:55:13.437Z,12.00
2018-03-23T20:57:41.046Z,11.90
2018-03-23T21:00:08.669Z,12.00
2018-03-23T21:02:36.260Z,12.00
2018-03-23T21:05:03.910Z,11.90
2018-03-23T21:07:31.510Z,11.90
2018-03-23T21:09:59.134Z,11.90
2018-03-23T21:12:26.737Z,11.90
2018-03-23T21:14:54.364Z,11.90
2018-03-23T21:17:21.948Z,11.90
2018-03-23T21:19:49.569Z,11.90
2018-03-23T21:22:17.158Z,11.90
2018-03-23T21:24:44.791Z,11.90
2018-03-23T21:27:12.391Z,11.90
2018-03-23T21:29:40.009Z,11.90
2018-03-23T21:32:07.687Z,11.90
2018-03-23T21:34:35.464Z,11.80
2018-03-23T21:37:03.053Z,11.80
2018-03-23T21:39:30.673Z,11.80
2018-03-23T21:41:58.296Z,11.80
2018-03-23T21:44:26.662Z,11.80
2018-03-23T21:46:55.108Z,11.80
2018-03-23T21:49:22.688Z,11.70
2018-03-23T21:51:50.276Z,11.80
2018-03-23T21:54:18.663Z,11.80
2018-03-23T21:56:46.368Z,11.70
2018-03-23T21:59:13.976Z,11.70
2018-03-23T22:01:42.333Z,11.70
2018-03-23T22:04:09.950Z,11.70
2018-03-23T22:06:37.577Z,11.70
2018-03-23T22:09:05.938Z,11.70
2018-03-23T22:11:33.560Z,11.60
2018-03-23T22:14:01.447Z,11.70
2018-03-23T22:16:30.029Z,11.70
2018-03-23T22:18:57.616Z,11.60
2018-03-23T22:21:26.007Z,11.60
2018-03-23T22:23:54.372Z,11.70
2018-03-23T22:26:22.767Z,11.70
2018-03-23T22:28:50.466Z,11.60
2018-03-23T22:31:18.068Z,11.60
2018-03-23T22:33:45.693Z,11.60
2018-03-23T22:36:13.289Z,11.60
2018-03-23T22:38:40.889Z,11.60
2018-03-23T22:41:08.544Z,11.60
2018-03-23T22:43:36.164Z,11.60
2018-03-23T22:46:03.761Z,11.60
2018-03-23T22:48:31.570Z,11.60
2018-03-23T22:50:59.298Z,11.60
2018-03-23T22:53:26.931Z,11.60
2018-03-23T22:55:55.289Z,11.50
2018-03-23T22:58:22.913Z,11.50
2018-03-23T23:00:50.505Z,11.50
2018-03-23T23:03:18.100Z,11.50
2018-03-23T23:05:46.497Z,11.50
2018-03-23T23:08:14.183Z,11.50
2018-03-23T23:10:41.774Z,11.50
2018-03-23T23:15:44.090Z,11.50
2018-03-23T23:18:12.472Z,11.50
2018-03-23T23:20:40.842Z,11.50
2018-03-23T23:23:09.201Z,11.50
2018-03-23T23:25:36.829Z,11.40
2018-03-23T23:28:04.447Z,11.50
2018-03-23T23:30:32.808Z,11.40
2018-03-23T23:33:00.404Z,11.40
2018-03-23T23:35:28.042Z,11.40
2018-03-23T23:37:56.403Z,11.40
2018-03-23T23:40:24.703Z,11.40
2018-03-23T23:42:53.245Z,11.40
2018-03-23T23:45:20.840Z,11.30
2018-03-23T23:47:49.196Z,11.40
2018-03-23T23:50:16.833Z,11.30
2018-03-23T23:52:44.424Z,11.40
2018-03-23T23:55:12.057Z,11.40
2018-03-23T23:57:39.654Z,11.40
